sensor_id;sensor_type;location;lat;lon;timestamp;pressure;altitude;pressure_sealevel;temperature;humidity
73341;BME280;61578;52.002;5.468;2022-07-23T00:00:05;101889.44;;;15.24;79.63
73341;BME280;61578;52.002;5.468;2022-07-23T00:00:58;101857.22;;;15.13;80.02
73341;BME280;61578;52.002;5.468;2022-07-23T00:01:49;101866.94;;;15.14;79.92
73341;BME280;61578;52.002;5.468;2022-07-23T00:02:40;101866.94;;;15.14;79.84
73341;BME280;61578;52.002;5.468;2022-07-23T00:03:31;101878.84;;;15.22;79.80
73341;BME280;61578;52.002;5.468;2022-07-23T00:04:22;101877.22;;;15.20;80.05
73341;BME280;61578;52.002;5.468;2022-07-23T00:05:13;101874.66;;;15.18;79.62
73341;BME280;61578;52.002;5.468;2022-07-23T00:06:04;101872.94;;;15.17;79.84
73341;BME280;61578;52.002;5.468;2022-07-23T00:06:55;101860.75;;;15.13;79.80
73341;BME280;61578;52.002;5.468;2022-07-23T00:07:46;101870.38;;;15.16;79.67
73341;BME280;61578;52.002;5.468;2022-07-23T00:08:37;101830.06;;;14.92;79.34
73341;BME280;61578;52.002;5.468;2022-07-23T00:09:28;101884.72;;;15.15;79.42
73341;BME280;61578;52.002;5.468;2022-07-23T00:10:21;101877.75;;;15.12;79.76
73341;BME280;61578;52.002;5.468;2022-07-23T00:11:12;101874.22;;;15.12;80.00
73341;BME280;61578;52.002;5.468;2022-07-23T00:12:04;101870.88;;;15.08;80.23
73341;BME280;61578;52.002;5.468;2022-07-23T00:12:55;101849.56;;;14.94;79.86
73341;BME280;61578;52.002;5.468;2022-07-23T00:13:46;101879.56;;;15.12;79.78
73341;BME280;61578;52.002;5.468;2022-07-23T00:14:37;101859.63;;;15.03;79.99
73341;BME280;61578;52.002;5.468;2022-07-23T00:15:28;101869.91;;;15.09;80.06
73341;BME280;61578;52.002;5.468;2022-07-23T00:16:19;101883.94;;;15.13;80.08
73341;BME280;61578;52.002;5.468;2022-07-23T00:17:10;101882.25;;;15.12;80.08
73341;BME280;61578;52.002;5.468;2022-07-23T00:18:01;101874.97;;;15.14;80.67
73341;BME280;61578;52.002;5.468;2022-07-23T00:18:52;101871.88;;;15.20;80.25
73341;BME280;61578;52.002;5.468;2022-07-23T00:19:43;101876.28;;;15.21;80.53
73341;BME280;61578;52.002;5.468;2022-07-23T00:20:34;101859.88;;;15.13;80.05
73341;BME280;61578;52.002;5.468;2022-07-23T00:21:25;101855.28;;;15.15;80.43
73341;BME280;61578;52.002;5.468;2022-07-23T00:22:16;101871.59;;;15.24;80.43
73341;BME280;61578;52.002;5.468;2022-07-23T00:23:07;101881.84;;;15.30;80.21
73341;BME280;61578;52.002;5.468;2022-07-23T00:23:58;101874.59;;;15.32;79.89
73341;BME280;61578;52.002;5.468;2022-07-23T00:24:49;101873.53;;;15.35;80.40
73341;BME280;61578;52.002;5.468;2022-07-23T00:25:40;101873.31;;;15.38;80.18
73341;BME280;61578;52.002;5.468;2022-07-23T00:26:31;101853.19;;;15.32;80.41
73341;BME280;61578;52.002;5.468;2022-07-23T00:27:23;101869.56;;;15.40;80.04
73341;BME280;61578;52.002;5.468;2022-07-23T00:28:13;101849.56;;;15.33;80.20
73341;BME280;61578;52.002;5.468;2022-07-23T00:29:04;101854.56;;;15.38;79.99
73341;BME280;61578;52.002;5.468;2022-07-23T00:29:55;101838.50;;;15.25;79.85
73341;BME280;61578;52.002;5.468;2022-07-23T00:30:47;101840.00;;;15.29;80.10
73341;BME280;61578;52.002;5.468;2022-07-23T00:31:38;101854.03;;;15.33;79.63
73341;BME280;61578;52.002;5.468;2022-07-23T00:32:29;101856.53;;;15.36;80.24
73341;BME280;61578;52.002;5.468;2022-07-23T00:33:20;101866.38;;;15.48;80.47
73341;BME280;61578;52.002;5.468;2022-07-23T00:34:11;101842.28;;;15.35;79.69
73341;BME280;61578;52.002;5.468;2022-07-23T00:35:02;101845.47;;;15.40;79.61
73341;BME280;61578;52.002;5.468;2022-07-23T00:35:53;101844.97;;;15.35;78.96
73341;BME280;61578;52.002;5.468;2022-07-23T00:36:44;101860.06;;;15.49;79.68
73341;BME280;61578;52.002;5.468;2022-07-23T00:37:35;101849.69;;;15.44;79.52
73341;BME280;61578;52.002;5.468;2022-07-23T00:38:26;101860.81;;;15.51;79.70
73341;BME280;61578;52.002;5.468;2022-07-23T00:39:17;101839.47;;;15.37;79.23
73341;BME280;61578;52.002;5.468;2022-07-23T00:40:09;101860.81;;;15.51;80.20
73341;BME280;61578;52.002;5.468;2022-07-23T00:41:01;101862.25;;;15.57;80.10
73341;BME280;61578;52.002;5.468;2022-07-23T00:41:52;101862.13;;;15.58;79.78
73341;BME280;61578;52.002;5.468;2022-07-23T00:42:43;101864.81;;;15.58;79.89
73341;BME280;61578;52.002;5.468;2022-07-23T00:43:34;101862.88;;;15.60;79.37
73341;BME280;61578;52.002;5.468;2022-07-23T00:44:27;101845.59;;;15.52;80.07
73341;BME280;61578;52.002;5.468;2022-07-23T00:45:19;101862.78;;;15.62;79.77
73341;BME280;61578;52.002;5.468;2022-07-23T00:46:11;101866.22;;;15.64;79.95
73341;BME280;61578;52.002;5.468;2022-07-23T00:47:02;101851.41;;;15.58;79.64
73341;BME280;61578;52.002;5.468;2022-07-23T00:47:53;101864.19;;;15.67;79.35
73341;BME280;61578;52.002;5.468;2022-07-23T00:48:44;101866.75;;;15.69;79.64
73341;BME280;61578;52.002;5.468;2022-07-23T00:49:35;101844.25;;;15.59;79.57
73341;BME280;61578;52.002;5.468;2022-07-23T00:50:26;101858.50;;;15.72;79.43
73341;BME280;61578;52.002;5.468;2022-07-23T00:51:18;101855.94;;;15.70;79.09
73341;BME280;61578;52.002;5.468;2022-07-23T00:52:09;101851.34;;;15.72;79.40
73341;BME280;61578;52.002;5.468;2022-07-23T00:53:00;101857.56;;;15.73;79.85
73341;BME280;61578;52.002;5.468;2022-07-23T00:53:52;101852.63;;;15.79;80.18
73341;BME280;61578;52.002;5.468;2022-07-23T00:54:43;101849.06;;;15.79;80.90
73341;BME280;61578;52.002;5.468;2022-07-23T00:55:34;101842.44;;;15.85;79.68
73341;BME280;61578;52.002;5.468;2022-07-23T00:56:25;101844.38;;;15.82;79.51
73341;BME280;61578;52.002;5.468;2022-07-23T00:57:17;101847.91;;;15.83;79.34
73341;BME280;61578;52.002;5.468;2022-07-23T00:58:09;101855.09;;;15.82;79.01
73341;BME280;61578;52.002;5.468;2022-07-23T00:59:00;101850.50;;;15.85;79.76
73341;BME280;61578;52.002;5.468;2022-07-23T00:59:51;101844.47;;;15.81;79.23
73341;BME280;61578;52.002;5.468;2022-07-23T01:00:42;101854.97;;;15.84;79.23
73341;BME280;61578;52.002;5.468;2022-07-23T01:01:33;101857.56;;;15.86;79.21
73341;BME280;61578;52.002;5.468;2022-07-23T01:02:26;101856.25;;;15.91;79.54
73341;BME280;61578;52.002;5.468;2022-07-23T01:03:17;101836.66;;;15.78;80.07
73341;BME280;61578;52.002;5.468;2022-07-23T01:04:08;101859.50;;;15.96;79.89
73341;BME280;61578;52.002;5.468;2022-07-23T01:04:59;101849.84;;;15.94;79.04
73341;BME280;61578;52.002;5.468;2022-07-23T01:05:50;101849.63;;;15.97;79.16
73341;BME280;61578;52.002;5.468;2022-07-23T01:06:43;101854.53;;;16.03;79.52
73341;BME280;61578;52.002;5.468;2022-07-23T01:07:35;101835.59;;;15.93;78.78
73341;BME280;61578;52.002;5.468;2022-07-23T01:08:27;101823.50;;;15.88;78.91
73341;BME280;61578;52.002;5.468;2022-07-23T01:09:18;101838.16;;;15.95;79.14
73341;BME280;61578;52.002;5.468;2022-07-23T01:10:09;101827.56;;;15.93;79.05
73341;BME280;61578;52.002;5.468;2022-07-23T01:11:19;101846.28;;;16.06;78.97
73341;BME280;61578;52.002;5.468;2022-07-23T01:12:11;101829.06;;;15.97;78.68
73341;BME280;61578;52.002;5.468;2022-07-23T01:13:07;101839.44;;;16.02;79.56
73341;BME280;61578;52.002;5.468;2022-07-23T01:14:16;101850.44;;;16.10;79.48
73341;BME280;61578;52.002;5.468;2022-07-23T01:15:09;101835.91;;;16.01;79.11
73341;BME280;61578;52.002;5.468;2022-07-23T01:16:00;101840.09;;;16.05;78.84
73341;BME280;61578;52.002;5.468;2022-07-23T01:16:51;101836.00;;;16.00;78.65
73341;BME280;61578;52.002;5.468;2022-07-23T01:17:42;101820.38;;;15.94;78.75
73341;BME280;61578;52.002;5.468;2022-07-23T01:18:33;101836.84;;;16.00;78.86
73341;BME280;61578;52.002;5.468;2022-07-23T01:19:24;101841.16;;;16.03;79.26
73341;BME280;61578;52.002;5.468;2022-07-23T01:20:15;101816.28;;;15.88;78.95
73341;BME280;61578;52.002;5.468;2022-07-23T01:21:06;101834.28;;;15.99;79.08
73341;BME280;61578;52.002;5.468;2022-07-23T01:22:03;101833.75;;;15.94;78.87
73341;BME280;61578;52.002;5.468;2022-07-23T01:22:55;101835.38;;;15.96;78.80
73341;BME280;61578;52.002;5.468;2022-07-23T01:23:46;101833.56;;;15.97;78.56
73341;BME280;61578;52.002;5.468;2022-07-23T01:24:37;101843.94;;;16.01;78.52
73341;BME280;61578;52.002;5.468;2022-07-23T01:25:28;101850.16;;;16.02;78.80
73341;BME280;61578;52.002;5.468;2022-07-23T01:26:19;101833.66;;;15.95;79.45
73341;BME280;61578;52.002;5.468;2022-07-23T01:27:10;101833.66;;;15.95;78.47
73341;BME280;61578;52.002;5.468;2022-07-23T01:28:03;101838.78;;;15.98;78.69
73341;BME280;61578;52.002;5.468;2022-07-23T01:28:54;101838.16;;;15.95;79.34
73341;BME280;61578;52.002;5.468;2022-07-23T01:29:45;101850.50;;;15.97;79.09
73341;BME280;61578;52.002;5.468;2022-07-23T01:30:36;101837.09;;;15.97;78.60
73341;BME280;61578;52.002;5.468;2022-07-23T01:31:27;101833.00;;;15.92;78.71
73341;BME280;61578;52.002;5.468;2022-07-23T01:32:18;101842.66;;;15.94;78.84
73341;BME280;61578;52.002;5.468;2022-07-23T01:33:09;101830.69;;;15.87;78.67
73341;BME280;61578;52.002;5.468;2022-07-23T01:34:00;101798.00;;;15.69;79.26
73341;BME280;61578;52.002;5.468;2022-07-23T01:34:51;101838.16;;;15.95;79.13
73341;BME280;61578;52.002;5.468;2022-07-23T01:35:42;101825.84;;;15.92;78.99
73341;BME280;61578;52.002;5.468;2022-07-23T01:36:34;101835.59;;;15.93;79.17
73341;BME280;61578;52.002;5.468;2022-07-23T01:37:26;101824.13;;;15.91;78.75
73341;BME280;61578;52.002;5.468;2022-07-23T01:38:17;101833.97;;;15.91;78.88
73341;BME280;61578;52.002;5.468;2022-07-23T01:39:08;101827.84;;;15.89;79.49
73341;BME280;61578;52.002;5.468;2022-07-23T01:39:59;101828.84;;;15.88;78.99
73341;BME280;61578;52.002;5.468;2022-07-23T01:40:49;101830.53;;;15.89;79.02
73341;BME280;61578;52.002;5.468;2022-07-23T01:41:40;101831.41;;;15.89;79.03
73341;BME280;61578;52.002;5.468;2022-07-23T01:42:32;101826.38;;;15.85;79.06
73341;BME280;61578;52.002;5.468;2022-07-23T01:43:23;101836.13;;;15.86;79.06
73341;BME280;61578;52.002;5.468;2022-07-23T01:44:14;101799.19;;;15.65;79.21
73341;BME280;61578;52.002;5.468;2022-07-23T01:45:05;101810.00;;;15.76;78.76
73341;BME280;61578;52.002;5.468;2022-07-23T01:45:56;101802.38;;;15.70;79.32
73341;BME280;61578;52.002;5.468;2022-07-23T01:46:47;101826.59;;;15.81;78.67
73341;BME280;61578;52.002;5.468;2022-07-23T01:47:38;101827.34;;;15.83;79.38
73341;BME280;61578;52.002;5.468;2022-07-23T01:48:29;101828.31;;;15.82;78.83
73341;BME280;61578;52.002;5.468;2022-07-23T01:49:20;101831.94;;;15.81;79.12
73341;BME280;61578;52.002;5.468;2022-07-23T01:50:11;101830.03;;;15.83;78.80
73341;BME280;61578;52.002;5.468;2022-07-23T01:51:03;101819.41;;;15.82;79.38
73341;BME280;61578;52.002;5.468;2022-07-23T01:51:54;101832.59;;;15.85;79.02
73341;BME280;61578;52.002;5.468;2022-07-23T01:52:50;101828.31;;;15.82;78.53
73341;BME280;61578;52.002;5.468;2022-07-23T01:53:41;101831.94;;;15.81;78.66
73341;BME280;61578;52.002;5.468;2022-07-23T01:54:33;101829.38;;;15.80;79.10
73341;BME280;61578;52.002;5.468;2022-07-23T01:55:24;101831.19;;;15.79;78.80
73341;BME280;61578;52.002;5.468;2022-07-23T01:56:16;101833.16;;;15.77;78.64
73341;BME280;61578;52.002;5.468;2022-07-23T01:57:07;101832.06;;;15.80;78.64
73341;BME280;61578;52.002;5.468;2022-07-23T01:57:59;101826.94;;;15.77;78.87
73341;BME280;61578;52.002;5.468;2022-07-23T01:58:50;101815.78;;;15.70;78.55
73341;BME280;61578;52.002;5.468;2022-07-23T01:59:41;101808.81;;;15.68;78.73
73341;BME280;61578;52.002;5.468;2022-07-23T02:00:32;101819.66;;;15.66;78.78
73341;BME280;61578;52.002;5.468;2022-07-23T02:01:23;101830.78;;;15.73;78.87
73341;BME280;61578;52.002;5.468;2022-07-23T02:02:14;101829.06;;;15.72;79.32
73341;BME280;61578;52.002;5.468;2022-07-23T02:03:05;101816.31;;;15.63;78.93
73341;BME280;61578;52.002;5.468;2022-07-23T02:03:56;101799.84;;;15.56;79.00
73341;BME280;61578;52.002;5.468;2022-07-23T02:04:47;101813.75;;;15.61;78.68
73341;BME280;61578;52.002;5.468;2022-07-23T02:05:38;101827.44;;;15.69;79.02
73341;BME280;61578;52.002;5.468;2022-07-23T02:06:29;101831.53;;;15.62;78.91
73341;BME280;61578;52.002;5.468;2022-07-23T02:07:20;101808.25;;;15.50;78.86
73341;BME280;61578;52.002;5.468;2022-07-23T02:08:11;101830.56;;;15.63;78.79
73341;BME280;61578;52.002;5.468;2022-07-23T02:09:02;101826.38;;;15.59;79.14
73341;BME280;61578;52.002;5.468;2022-07-23T02:09:53;101828.94;;;15.61;79.03
73341;BME280;61578;52.002;5.468;2022-07-23T02:10:44;101816.16;;;15.52;79.37
73341;BME280;61578;52.002;5.468;2022-07-23T02:11:36;101800.00;;;15.40;nan
73341;BME280;61578;52.002;5.468;2022-07-23T02:12:27;101830.00;;;15.58;78.78
73341;BME280;61578;52.002;5.468;2022-07-23T02:13:18;101819.28;;;15.58;78.92
73341;BME280;61578;52.002;5.468;2022-07-23T02:14:09;101833.66;;;15.57;79.19
73341;BME280;61578;52.002;5.468;2022-07-23T02:15:00;101827.56;;;15.55;79.14
73341;BME280;61578;52.002;5.468;2022-07-23T02:15:51;101797.00;;;15.32;79.25
73341;BME280;61578;52.002;5.468;2022-07-23T02:16:42;101826.22;;;15.48;79.25
73341;BME280;61578;52.002;5.468;2022-07-23T02:17:33;101827.06;;;15.48;79.37
73341;BME280;61578;52.002;5.468;2022-07-23T02:18:24;101830.84;;;15.46;79.77
73341;BME280;61578;52.002;5.468;2022-07-23T02:19:15;101827.19;;;15.47;79.85
73341;BME280;61578;52.002;5.468;2022-07-23T02:20:08;101819.28;;;15.45;79.66
73341;BME280;61578;52.002;5.468;2022-07-23T02:21:00;101823.88;;;15.43;79.23
73341;BME280;61578;52.002;5.468;2022-07-23T02:21:51;101806.84;;;15.32;79.71
73341;BME280;61578;52.002;5.468;2022-07-23T02:22:42;101813.16;;;15.31;79.51
73341;BME280;61578;52.002;5.468;2022-07-23T02:23:33;101825.28;;;15.36;79.66
73341;BME280;61578;52.002;5.468;2022-07-23T02:24:24;101807.47;;;15.23;79.66
73341;BME280;61578;52.002;5.468;2022-07-23T02:25:15;101835.22;;;15.34;79.58
73341;BME280;61578;52.002;5.468;2022-07-23T02:26:06;101838.75;;;15.35;79.65
73341;BME280;61578;52.002;5.468;2022-07-23T02:26:57;101834.25;;;15.35;79.74
73341;BME280;61578;52.002;5.468;2022-07-23T02:27:48;101820.66;;;15.26;80.08
73341;BME280;61578;52.002;5.468;2022-07-23T02:28:39;101841.63;;;15.32;80.04
73341;BME280;61578;52.002;5.468;2022-07-23T02:29:30;101841.72;;;15.30;79.83
73341;BME280;61578;52.002;5.468;2022-07-23T02:30:21;101840.34;;;15.25;80.17
73341;BME280;61578;52.002;5.468;2022-07-23T02:31:12;101821.25;;;15.17;80.15
73341;BME280;61578;52.002;5.468;2022-07-23T02:32:03;101824.91;;;15.16;80.41
73341;BME280;61578;52.002;5.468;2022-07-23T02:32:54;101826.59;;;15.17;80.00
73341;BME280;61578;52.002;5.468;2022-07-23T02:33:45;101784.19;;;14.98;80.36
73341;BME280;61578;52.002;5.468;2022-07-23T02:34:36;101821.91;;;15.20;80.39
73341;BME280;61578;52.002;5.468;2022-07-23T02:35:27;101829.63;;;15.25;80.06
73341;BME280;61578;52.002;5.468;2022-07-23T02:36:18;101829.06;;;15.20;80.02
73341;BME280;61578;52.002;5.468;2022-07-23T02:37:09;101836.13;;;15.21;80.04
73341;BME280;61578;52.002;5.468;2022-07-23T02:38:00;101824.25;;;15.12;80.22
73341;BME280;61578;52.002;5.468;2022-07-23T02:38:51;101819.19;;;15.07;80.31
73341;BME280;61578;52.002;5.468;2022-07-23T02:39:42;101839.34;;;15.13;80.13
73341;BME280;61578;52.002;5.468;2022-07-23T02:40:34;101830.84;;;15.06;80.07
73341;BME280;61578;52.002;5.468;2022-07-23T02:41:25;101833.31;;;15.09;80.50
73341;BME280;61578;52.002;5.468;2022-07-23T02:42:16;101823.44;;;14.97;80.49
73341;BME280;61578;52.002;5.468;2022-07-23T02:43:08;101839.00;;;15.05;80.34
73341;BME280;61578;52.002;5.468;2022-07-23T02:43:59;101839.50;;;14.97;80.19
73341;BME280;61578;52.002;5.468;2022-07-23T02:44:51;101850.19;;;14.97;80.66
73341;BME280;61578;52.002;5.468;2022-07-23T02:45:42;101840.56;;;14.95;80.44
73341;BME280;61578;52.002;5.468;2022-07-23T02:46:33;101850.50;;;14.93;81.03
73341;BME280;61578;52.002;5.468;2022-07-23T02:47:24;101831.44;;;14.85;80.62
73341;BME280;61578;52.002;5.468;2022-07-23T02:48:15;101841.91;;;14.88;80.55
73341;BME280;61578;52.002;5.468;2022-07-23T02:49:06;101831.47;;;14.70;81.51
73341;BME280;61578;52.002;5.468;2022-07-23T02:49:57;101837.00;;;14.82;80.72
73341;BME280;61578;52.002;5.468;2022-07-23T02:50:48;101830.97;;;14.78;80.99
73341;BME280;61578;52.002;5.468;2022-07-23T02:51:39;101835.97;;;14.70;81.06
73341;BME280;61578;52.002;5.468;2022-07-23T02:52:30;101834.91;;;14.72;80.53
73341;BME280;61578;52.002;5.468;2022-07-23T02:53:22;101825.38;;;14.68;81.10
73341;BME280;61578;52.002;5.468;2022-07-23T02:54:13;101842.00;;;14.73;81.15
73341;BME280;61578;52.002;5.468;2022-07-23T02:55:05;101832.34;;;14.71;80.98
73341;BME280;61578;52.002;5.468;2022-07-23T02:55:57;101824.84;;;14.63;81.08
73341;BME280;61578;52.002;5.468;2022-07-23T02:56:48;101815.59;;;14.55;80.82
73341;BME280;61578;52.002;5.468;2022-07-23T02:57:41;101834.44;;;14.66;81.37
73341;BME280;61578;52.002;5.468;2022-07-23T02:58:32;101838.19;;;14.63;81.24
73341;BME280;61578;52.002;5.468;2022-07-23T02:59:23;101810.00;;;14.45;81.25
73341;BME280;61578;52.002;5.468;2022-07-23T03:00:14;101833.13;;;14.59;81.61
73341;BME280;61578;52.002;5.468;2022-07-23T03:01:05;101847.25;;;14.61;81.76
73341;BME280;61578;52.002;5.468;2022-07-23T03:01:56;101838.56;;;14.57;81.68
73341;BME280;61578;52.002;5.468;2022-07-23T03:02:47;101848.31;;;14.58;81.09
73341;BME280;61578;52.002;5.468;2022-07-23T03:03:38;101840.03;;;14.49;81.39
73341;BME280;61578;52.002;5.468;2022-07-23T03:04:29;101850.44;;;14.53;81.28
73341;BME280;61578;52.002;5.468;2022-07-23T03:05:20;101841.66;;;14.51;81.25
73341;BME280;61578;52.002;5.468;2022-07-23T03:06:11;101819.53;;;14.35;81.50
73341;BME280;61578;52.002;5.468;2022-07-23T03:07:02;101846.75;;;14.42;81.81
73341;BME280;61578;52.002;5.468;2022-07-23T03:07:53;101847.59;;;14.42;81.52
73341;BME280;61578;52.002;5.468;2022-07-23T03:08:44;101854.66;;;14.43;81.75
73341;BME280;61578;52.002;5.468;2022-07-23T03:09:35;101846.44;;;14.32;81.61
73341;BME280;61578;52.002;5.468;2022-07-23T03:10:26;101848.16;;;14.33;81.52
73341;BME280;61578;52.002;5.468;2022-07-23T03:11:17;101856.66;;;14.40;82.01
73341;BME280;61578;52.002;5.468;2022-07-23T03:12:08;101855.81;;;14.39;81.98
73341;BME280;61578;52.002;5.468;2022-07-23T03:12:59;101856.72;;;14.38;81.89
73341;BME280;61578;52.002;5.468;2022-07-23T03:13:50;101859.47;;;14.36;81.95
73341;BME280;61578;52.002;5.468;2022-07-23T03:14:41;101858.63;;;14.36;82.11
73341;BME280;61578;52.002;5.468;2022-07-23T03:15:32;101855.09;;;14.35;81.97
73341;BME280;61578;52.002;5.468;2022-07-23T03:16:23;101837.06;;;14.25;82.08
73341;BME280;61578;52.002;5.468;2022-07-23T03:17:14;101848.34;;;14.30;82.10
73341;BME280;61578;52.002;5.468;2022-07-23T03:18:05;101843.28;;;14.25;81.89
73341;BME280;61578;52.002;5.468;2022-07-23T03:18:56;101845.00;;;14.26;81.97
73341;BME280;61578;52.002;5.468;2022-07-23T03:19:47;101841.88;;;14.20;82.07
73341;BME280;61578;52.002;5.468;2022-07-23T03:20:38;101863.50;;;14.29;81.87
73341;BME280;61578;52.002;5.468;2022-07-23T03:21:29;101856.44;;;14.28;81.55
73341;BME280;61578;52.002;5.468;2022-07-23T03:22:21;101853.41;;;14.20;81.84
73341;BME280;61578;52.002;5.468;2022-07-23T03:23:12;101856.63;;;14.25;81.77
73341;BME280;61578;52.002;5.468;2022-07-23T03:24:03;101863.91;;;14.23;81.59
73341;BME280;61578;52.002;5.468;2022-07-23T03:24:54;101863.06;;;14.23;81.99
73341;BME280;61578;52.002;5.468;2022-07-23T03:25:45;101863.91;;;14.23;82.08
73341;BME280;61578;52.002;5.468;2022-07-23T03:26:38;101860.66;;;14.18;81.92
73341;BME280;61578;52.002;5.468;2022-07-23T03:27:30;101857.03;;;14.19;81.99
73341;BME280;61578;52.002;5.468;2022-07-23T03:28:21;101858.84;;;14.19;81.55
73341;BME280;61578;52.002;5.468;2022-07-23T03:29:12;101865.03;;;14.19;81.96
73341;BME280;61578;52.002;5.468;2022-07-23T03:30:04;101859.69;;;14.19;81.79
73341;BME280;61578;52.002;5.468;2022-07-23T03:30:55;101859.69;;;14.19;81.75
73341;BME280;61578;52.002;5.468;2022-07-23T03:31:46;101860.66;;;14.18;81.53
73341;BME280;61578;52.002;5.468;2022-07-23T03:32:37;101862.56;;;14.16;81.87
73341;BME280;61578;52.002;5.468;2022-07-23T03:33:28;101861.16;;;14.11;81.65
73341;BME280;61578;52.002;5.468;2022-07-23T03:34:19;101848.16;;;14.05;81.81
73341;BME280;61578;52.002;5.468;2022-07-23T03:35:10;101856.06;;;14.06;81.62
73341;BME280;61578;52.002;5.468;2022-07-23T03:36:01;101825.19;;;13.88;81.32
73341;BME280;61578;52.002;5.468;2022-07-23T03:36:52;101870.97;;;14.10;81.75
73341;BME280;61578;52.002;5.468;2022-07-23T03:37:43;101849.59;;;13.96;81.77
73341;BME280;61578;52.002;5.468;2022-07-23T03:38:34;101863.13;;;14.07;81.69
73341;BME280;61578;52.002;5.468;2022-07-23T03:39:25;101864.09;;;14.06;81.94
73341;BME280;61578;52.002;5.468;2022-07-23T03:40:16;101870.19;;;14.08;81.91
73341;BME280;61578;52.002;5.468;2022-07-23T03:41:07;101872.09;;;14.06;81.89
73341;BME280;61578;52.002;5.468;2022-07-23T03:41:58;101841.78;;;13.93;82.16
73341;BME280;61578;52.002;5.468;2022-07-23T03:42:49;101852.09;;;13.99;82.31
73341;BME280;61578;52.002;5.468;2022-07-23T03:43:39;101866.66;;;14.08;82.10
73341;BME280;61578;52.002;5.468;2022-07-23T03:44:30;101853.03;;;13.98;82.27
73341;BME280;61578;52.002;5.468;2022-07-23T03:45:21;101865.03;;;14.05;81.91
73341;BME280;61578;52.002;5.468;2022-07-23T03:46:13;101872.88;;;14.08;81.81
73341;BME280;61578;52.002;5.468;2022-07-23T03:47:05;101861.41;;;14.06;82.04
73341;BME280;61578;52.002;5.468;2022-07-23T03:47:57;101853.88;;;13.98;82.19
73341;BME280;61578;52.002;5.468;2022-07-23T03:48:48;101868.56;;;14.06;81.56
73341;BME280;61578;52.002;5.468;2022-07-23T03:49:39;101811.00;;;13.73;81.63
73341;BME280;61578;52.002;5.468;2022-07-23T03:50:30;101857.34;;;14.00;81.33
73341;BME280;61578;52.002;5.468;2022-07-23T03:51:21;101857.50;;;13.97;81.46
73341;BME280;61578;52.002;5.468;2022-07-23T03:52:12;101862.00;;;13.97;81.72
73341;BME280;61578;52.002;5.468;2022-07-23T03:53:03;101837.13;;;13.82;82.01
73341;BME280;61578;52.002;5.468;2022-07-23T03:53:54;101842.06;;;13.88;81.89
73341;BME280;61578;52.002;5.468;2022-07-23T03:54:46;101863.72;;;13.98;81.34
73341;BME280;61578;52.002;5.468;2022-07-23T03:55:37;101866.38;;;13.98;81.81
73341;BME280;61578;52.002;5.468;2022-07-23T03:56:27;101863.88;;;13.95;81.72
73341;BME280;61578;52.002;5.468;2022-07-23T03:57:18;101863.16;;;13.93;81.96
73341;BME280;61578;52.002;5.468;2022-07-23T03:58:09;101862.19;;;13.94;81.84
73341;BME280;61578;52.002;5.468;2022-07-23T03:59:00;101857.22;;;13.88;81.81
73341;BME280;61578;52.002;5.468;2022-07-23T03:59:51;101866.69;;;13.93;82.04
73341;BME280;61578;52.002;5.468;2022-07-23T04:00:43;101863.81;;;13.96;82.22
73341;BME280;61578;52.002;5.468;2022-07-23T04:01:34;101858.84;;;13.90;81.89
73341;BME280;61578;52.002;5.468;2022-07-23T04:02:25;101845.88;;;13.84;82.36
73341;BME280;61578;52.002;5.468;2022-07-23T04:03:16;101858.00;;;13.90;82.22
73341;BME280;61578;52.002;5.468;2022-07-23T04:04:07;101863.03;;;13.94;81.60
73341;BME280;61578;52.002;5.468;2022-07-23T04:04:58;101858.75;;;13.92;81.70
73341;BME280;61578;52.002;5.468;2022-07-23T04:05:51;101862.28;;;13.92;81.82
73341;BME280;61578;52.002;5.468;2022-07-23T04:06:42;101856.97;;;13.92;82.24
73341;BME280;61578;52.002;5.468;2022-07-23T04:07:33;101858.75;;;13.92;82.08
73341;BME280;61578;52.002;5.468;2022-07-23T04:08:24;101850.06;;;13.88;82.21
73341;BME280;61578;52.002;5.468;2022-07-23T04:09:15;101853.59;;;13.89;81.89
73341;BME280;61578;52.002;5.468;2022-07-23T04:10:07;101853.50;;;13.90;82.18
73341;BME280;61578;52.002;5.468;2022-07-23T04:10:58;101846.84;;;13.83;82.17
73341;BME280;61578;52.002;5.468;2022-07-23T04:11:49;101850.94;;;13.89;81.89
73341;BME280;61578;52.002;5.468;2022-07-23T04:12:40;101857.13;;;13.89;81.75
73341;BME280;61578;52.002;5.468;2022-07-23T04:13:31;101858.75;;;13.92;82.38
73341;BME280;61578;52.002;5.468;2022-07-23T04:14:23;101843.00;;;13.87;81.83
73341;BME280;61578;52.002;5.468;2022-07-23T04:15:14;101851.03;;;13.87;82.21
73341;BME280;61578;52.002;5.468;2022-07-23T04:16:05;101848.53;;;13.84;81.76
73341;BME280;61578;52.002;5.468;2022-07-23T04:16:56;101818.41;;;13.68;81.34
73341;BME280;61578;52.002;5.468;2022-07-23T04:17:48;101859.13;;;13.86;81.65
73341;BME280;61578;52.002;5.468;2022-07-23T04:18:39;101864.38;;;13.87;81.90
73341;BME280;61578;52.002;5.468;2022-07-23T04:19:30;101853.78;;;13.86;81.54
73341;BME280;61578;52.002;5.468;2022-07-23T04:20:21;101840.34;;;13.73;81.65
73341;BME280;61578;52.002;5.468;2022-07-23T04:21:12;101842.16;;;13.73;81.86
73341;BME280;61578;52.002;5.468;2022-07-23T04:22:03;101850.72;;;13.78;81.88
73341;BME280;61578;52.002;5.468;2022-07-23T04:22:54;101860.06;;;13.85;81.96
73341;BME280;61578;52.002;5.468;2022-07-23T04:23:45;101844.25;;;13.82;81.63
73341;BME280;61578;52.002;5.468;2022-07-23T04:24:36;101854.94;;;13.82;81.23
73341;BME280;61578;52.002;5.468;2022-07-23T04:25:28;101857.63;;;13.82;81.46
73341;BME280;61578;52.002;5.468;2022-07-23T04:26:19;101846.25;;;13.78;81.77
73341;BME280;61578;52.002;5.468;2022-07-23T04:27:10;101856.84;;;13.80;81.57
73341;BME280;61578;52.002;5.468;2022-07-23T04:28:01;101838.53;;;13.74;81.43